Time;durP1;ratioP1;P1;durP2;ratioP2;P2;SDS_P1;SDS_P2;PMS_P1;PMS_P2;Temp;Humidity;BMP_temperature;BMP_pressure;BME280_temperature;BME280_humidity;BME280_pressure;Samples;Min_cycle;Max_cycle;Signal;HPM_P1;HPM_P2
2021/05/03 00:01:29;;;;;;;19.88;5.05;;;;;;;;;;10337603;28;20075;-59
2021/05/03 00:06:26;;;;;;;24.33;5.00;;;;;;;;;;10338549;28;20413;-59
2021/05/03 00:11:24;;;;;;;22.85;4.88;;;;;;;;;;10338128;28;20072;-59
2021/05/03 00:16:22;;;;;;;16.98;4.97;;;;;;;;;;10336890;28;20457;-59
2021/05/03 00:21:20;;;;;;;14.38;4.25;;;;;;;;;;10340168;28;20480;-59
2021/05/03 00:26:17;;;;;;;13.57;4.95;;;;;;;;;;10338488;28;20048;-59
2021/05/03 00:31:15;;;;;;;9.98;3.88;;;;;;;;;;10336286;28;20137;-59
2021/05/03 00:36:13;;;;;;;21.40;5.05;;;;;;;;;;10338057;28;20040;-59
2021/05/03 00:41:10;;;;;;;13.60;4.57;;;;;;;;;;10335428;28;20068;-59
2021/05/03 00:46:08;;;;;;;15.00;3.53;;;;;;;;;;10335732;28;20064;-59
2021/05/03 00:51:05;;;;;;;18.33;5.03;;;;;;;;;;10334494;28;20528;-59
2021/05/03 00:56:04;;;;;;;19.67;4.30;;;;;;;;;;10337619;28;20063;-59
2021/05/03 01:01:01;;;;;;;19.50;4.82;;;;;;;;;;10337281;28;20084;-58
2021/05/03 01:05:58;;;;;;;18.75;3.95;;;;;;;;;;10336618;28;20063;-59
2021/05/03 01:10:56;;;;;;;13.05;3.55;;;;;;;;;;10337881;28;20036;-59
2021/05/03 01:15:54;;;;;;;19.00;4.60;;;;;;;;;;10336446;28;20075;-59
2021/05/03 01:20:55;;;;;;;15.35;5.72;;;;;;;;;;10333475;28;20068;-59
2021/05/03 01:25:53;;;;;;;13.02;4.10;;;;;;;;;;10335181;28;20519;-59
2021/05/03 01:30:50;;;;;;;19.25;4.40;;;;;;;;;;10336762;28;20075;-58
2021/05/03 01:35:48;;;;;;;14.98;4.05;;;;;;;;;;10335890;28;20062;-59
2021/05/03 01:40:46;;;;;;;14.95;3.30;;;;;;;;;;10337197;28;20098;-58
2021/05/03 01:45:45;;;;;;;16.30;4.22;;;;;;;;;;10336485;28;20040;-58
2021/05/03 01:50:42;;;;;;;19.45;3.55;;;;;;;;;;10333641;28;20520;-59
2021/05/03 01:55:40;;;;;;;13.98;3.40;;;;;;;;;;10334172;28;20080;-58
2021/05/03 02:00:38;;;;;;;14.15;5.13;;;;;;;;;;10335304;28;20083;-59
2021/05/03 02:05:35;;;;;;;12.18;3.55;;;;;;;;;;10333625;28;20599;-59
2021/05/03 02:10:33;;;;;;;15.05;3.95;;;;;;;;;;10335869;28;20078;-59
2021/05/03 02:15:31;;;;;;;6.85;2.90;;;;;;;;;;10336383;28;20072;-59
2021/05/03 02:20:31;;;;;;;12.13;3.92;;;;;;;;;;10335550;28;20075;-59
2021/05/03 02:25:28;;;;;;;15.95;3.58;;;;;;;;;;10335576;28;20064;-59
2021/05/03 02:30:26;;;;;;;15.70;3.92;;;;;;;;;;10335972;28;20047;-59
2021/05/03 02:35:25;;;;;;;10.50;3.95;;;;;;;;;;10338978;28;20044;-58
2021/05/03 02:40:24;;;;;;;20.45;5.35;;;;;;;;;;10340403;28;20082;-58
2021/05/03 02:45:22;;;;;;;11.90;3.70;;;;;;;;;;10322377;28;20182;-59
2021/05/03 02:50:21;;;;;;;15.77;3.22;;;;;;;;;;10322114;28;20049;-59
2021/05/03 02:55:19;;;;;;;13.48;4.03;;;;;;;;;;10321843;28;20049;-59
2021/05/03 03:00:21;;;;;;;14.00;3.28;;;;;;;;;;10319404;28;20084;-59
2021/05/03 03:05:19;;;;;;;13.02;2.90;;;;;;;;;;10335945;28;20047;-58
2021/05/03 03:10:16;;;;;;;14.88;3.85;;;;;;;;;;10342518;28;20064;-59
2021/05/03 03:15:16;;;;;;;13.30;3.35;;;;;;;;;;10341746;28;20424;-58
2021/05/03 03:20:15;;;;;;;22.02;4.88;;;;;;;;;;10341180;28;20071;-59
2021/05/03 03:25:12;;;;;;;16.00;3.45;;;;;;;;;;10341509;28;20523;-59
2021/05/03 03:30:12;;;;;;;12.15;3.47;;;;;;;;;;10340169;28;20036;-58
2021/05/03 03:35:10;;;;;;;16.08;3.38;;;;;;;;;;10337081;28;20072;-58
2021/05/03 03:40:09;;;;;;;11.23;3.67;;;;;;;;;;10339774;28;20084;-58
2021/05/03 03:45:08;;;;;;;12.20;3.60;;;;;;;;;;10337271;28;20072;-58
2021/05/03 03:50:06;;;;;;;16.33;3.78;;;;;;;;;;10341549;28;20056;-58
2021/05/03 03:55:04;;;;;;;12.80;3.30;;;;;;;;;;10340787;28;20040;-59
2021/05/03 04:00:03;;;;;;;10.10;4.00;;;;;;;;;;10339683;28;20500;-59
2021/05/03 04:05:12;;;;;;;12.20;3.53;;;;;;;;;;10342365;28;20072;-59
2021/05/03 04:10:20;;;;;;;20.38;3.50;;;;;;;;;;10340078;28;20067;-59
2021/05/03 04:25:49;;;;;;;14.82;4.03;;;;;;;;;;10333268;28;20310;-59
2021/05/03 04:30:48;;;;;;;18.85;4.82;;;;;;;;;;10337995;28;20063;-58
2021/05/03 04:35:46;;;;;;;18.33;3.75;;;;;;;;;;10333380;28;20666;-58
2021/05/03 04:40:45;;;;;;;13.95;3.17;;;;;;;;;;10335072;28;20071;-58
2021/05/03 04:45:43;;;;;;;14.80;5.47;;;;;;;;;;10338412;28;20039;-58
2021/05/03 04:50:41;;;;;;;12.07;3.80;;;;;;;;;;10336906;28;20496;-58
2021/05/03 04:55:39;;;;;;;15.27;4.57;;;;;;;;;;10338647;28;20032;-58
2021/05/03 05:00:38;;;;;;;16.20;5.18;;;;;;;;;;10336837;28;20466;-59
2021/05/03 05:05:35;;;;;;;16.45;4.00;;;;;;;;;;10338669;28;20081;-59
2021/05/03 05:10:34;;;;;;;16.50;5.10;;;;;;;;;;10336929;28;20040;-60
2021/05/03 05:15:31;;;;;;;16.63;4.35;;;;;;;;;;10337659;28;20060;-60
2021/05/03 05:20:29;;;;;;;13.50;4.65;;;;;;;;;;10337509;28;20067;-59
2021/05/03 05:25:26;;;;;;;12.90;4.47;;;;;;;;;;10336208;28;20043;-59
2021/05/03 05:30:24;;;;;;;9.63;3.97;;;;;;;;;;10338055;28;20055;-59
2021/05/03 05:35:22;;;;;;;17.33;4.93;;;;;;;;;;10316139;28;20462;-59
2021/05/03 05:40:19;;;;;;;14.55;4.80;;;;;;;;;;10316311;28;20072;-60
2021/05/03 05:45:17;;;;;;;19.98;5.03;;;;;;;;;;10315888;28;20436;-60
2021/05/03 05:50:15;;;;;;;12.75;4.03;;;;;;;;;;10334590;28;20116;-59
2021/05/03 05:55:12;;;;;;;9.70;3.28;;;;;;;;;;10334018;28;20063;-60
2021/05/03 06:00:10;;;;;;;8.00;3.20;;;;;;;;;;10332697;28;20091;-59
2021/05/03 06:05:10;;;;;;;15.63;3.33;;;;;;;;;;10340191;28;20087;-59
2021/05/03 06:10:09;;;;;;;8.75;2.38;;;;;;;;;;10339141;28;20044;-59
2021/05/03 06:15:07;;;;;;;9.32;3.38;;;;;;;;;;10342945;28;20055;-59
2021/05/03 06:20:05;;;;;;;10.35;2.95;;;;;;;;;;10345624;28;20536;-59
2021/05/03 06:25:07;;;;;;;9.35;5.28;;;;;;;;;;10344499;28;20044;-59
2021/05/03 06:30:09;;;;;;;15.05;4.35;;;;;;;;;;10342839;28;20095;-60
2021/05/03 06:35:07;;;;;;;14.82;3.63;;;;;;;;;;10344195;28;20086;-59
2021/05/03 06:40:05;;;;;;;4.68;2.95;;;;;;;;;;10342585;28;20543;-59
2021/05/03 06:45:03;;;;;;;8.23;3.17;;;;;;;;;;10342973;28;20551;-59
2021/05/03 06:50:01;;;;;;;3.53;1.63;;;;;;;;;;10342956;28;20071;-58
2021/05/03 06:54:59;;;;;;;9.35;2.70;;;;;;;;;;10341120;28;20067;-58
2021/05/03 06:59:56;;;;;;;19.92;11.45;;;;;;;;;;10343449;28;20076;-58
2021/05/03 07:04:53;;;;;;;8.27;2.75;;;;;;;;;;10341154;28;20420;-58
2021/05/03 07:09:52;;;;;;;6.47;3.00;;;;;;;;;;10342144;28;20063;-59
2021/05/03 07:14:49;;;;;;;8.20;3.90;;;;;;;;;;10341291;28;20051;-58
2021/05/03 07:19:47;;;;;;;7.78;4.38;;;;;;;;;;10341455;28;20067;-58
2021/05/03 07:24:44;;;;;;;9.38;2.47;;;;;;;;;;10341494;28;20070;-59
2021/05/03 07:29:42;;;;;;;12.55;2.70;;;;;;;;;;10340540;28;20048;-59
2021/05/03 07:34:40;;;;;;;9.30;2.80;;;;;;;;;;10342116;28;20076;-59
2021/05/03 07:39:37;;;;;;;11.25;3.00;;;;;;;;;;10340097;28;20078;-59
2021/05/03 07:44:35;;;;;;;9.63;3.25;;;;;;;;;;10342234;28;20043;-59
2021/05/03 07:49:33;;;;;;;8.90;2.47;;;;;;;;;;10338583;28;20532;-59
2021/05/03 07:54:31;;;;;;;11.52;3.92;;;;;;;;;;10340518;28;20087;-58
2021/05/03 07:59:28;;;;;;;8.38;3.00;;;;;;;;;;10339978;28;20044;-58
2021/05/03 08:04:26;;;;;;;10.77;3.08;;;;;;;;;;10338910;28;20063;-58
2021/05/03 08:09:24;;;;;;;7.68;2.60;;;;;;;;;;10340575;28;20040;-57
2021/05/03 08:14:22;;;;;;;10.07;3.10;;;;;;;;;;10338441;28;20059;-59
2021/05/03 08:19:22;;;;;;;4.97;1.95;;;;;;;;;;10340374;28;20051;-58
2021/05/03 08:24:26;;;;;;;4.10;2.28;;;;;;;;;;10337758;28;20072;-58
2021/05/03 08:29:24;;;;;;;4.65;1.65;;;;;;;;;;10318630;28;20060;-59
2021/05/03 08:34:21;;;;;;;11.82;2.67;;;;;;;;;;10317918;28;20045;-59
2021/05/03 08:39:20;;;;;;;8.98;2.58;;;;;;;;;;10317929;28;20048;-59
2021/05/03 08:44:18;;;;;;;4.57;2.90;;;;;;;;;;10317558;28;20079;-59
2021/05/03 08:49:20;;;;;;;7.18;1.90;;;;;;;;;;10317367;28;20083;-59
2021/05/03 08:54:23;;;;;;;7.65;3.13;;;;;;;;;;10317156;28;20064;-59
2021/05/03 08:59:21;;;;;;;8.15;2.40;;;;;;;;;;10317279;28;20083;-58
2021/05/03 09:04:19;;;;;;;10.18;3.05;;;;;;;;;;10316863;28;20106;-59
2021/05/03 09:09:16;;;;;;;7.00;2.42;;;;;;;;;;10316821;28;20032;-60
2021/05/03 09:14:14;;;;;;;14.23;2.45;;;;;;;;;;10336134;28;20032;-59
2021/05/03 09:19:12;;;;;;;7.38;2.22;;;;;;;;;;10336096;28;20043;-60
2021/05/03 09:24:13;;;;;;;7.13;1.98;;;;;;;;;;10336576;28;20082;-60
2021/05/03 09:29:29;;;;;;;4.72;2.60;;;;;;;;;;10335371;28;20044;-59
2021/05/03 09:34:28;;;;;;;5.47;1.83;;;;;;;;;;10337589;28;20044;-59
2021/05/03 09:39:31;;;;;;;8.43;1.83;;;;;;;;;;10336553;28;20075;-59
2021/05/03 09:44:28;;;;;;;6.93;2.10;;;;;;;;;;10334631;28;20466;-60
2021/05/03 09:49:26;;;;;;;8.50;1.90;;;;;;;;;;10335221;28;20486;-58
2021/05/03 09:54:26;;;;;;;4.68;1.88;;;;;;;;;;10336473;28;20083;-59
2021/05/03 09:59:33;;;;;;;10.82;2.35;;;;;;;;;;10336613;28;20041;-58
2021/05/03 10:04:32;;;;;;;9.07;2.25;;;;;;;;;;10335483;28;20083;-58
2021/05/03 10:09:32;;;;;;;6.15;2.00;;;;;;;;;;10336621;28;20037;-58
2021/05/03 10:14:29;;;;;;;4.72;2.22;;;;;;;;;;10335732;28;20078;-60
2021/05/03 10:19:33;;;;;;;9.55;3.10;;;;;;;;;;10336762;28;20045;-59
2021/05/03 10:24:31;;;;;;;4.10;1.77;;;;;;;;;;10335539;28;20043;-59
2021/05/03 10:29:30;;;;;;;9.52;2.10;;;;;;;;;;10335786;28;20516;-59
2021/05/03 10:34:37;;;;;;;6.07;3.50;;;;;;;;;;10336024;28;20070;-59
2021/05/03 10:39:37;;;;;;;5.57;1.60;;;;;;;;;;10336071;28;20481;-59
2021/05/03 10:44:36;;;;;;;4.93;2.25;;;;;;;;;;10334692;28;20063;-59
2021/05/03 10:49:35;;;;;;;8.00;1.55;;;;;;;;;;10335437;28;20536;-60
2021/05/03 10:54:47;;;;;;;4.40;1.95;;;;;;;;;;10336231;28;20047;-59
2021/05/03 10:59:45;;;;;;;4.47;2.05;;;;;;;;;;10343533;28;20091;-59
2021/05/03 11:05:01;;;;;;;3.90;2.17;;;;;;;;;;10341619;28;20069;-59
2021/05/03 11:09:59;;;;;;;8.60;1.98;;;;;;;;;;10343492;28;20044;-59
2021/05/03 11:15:15;;;;;;;6.30;1.90;;;;;;;;;;10341880;28;20051;-59
2021/05/03 11:20:15;;;;;;;9.13;1.88;;;;;;;;;;10341333;28;20680;-59
2021/05/03 11:25:15;;;;;;;1.73;1.20;;;;;;;;;;10340279;28;20044;-59
2021/05/03 11:30:15;;;;;;;6.25;2.03;;;;;;;;;;10340843;28;20071;-59
2021/05/03 11:35:20;;;;;;;8.65;2.28;;;;;;;;;;10342672;28;20048;-59
2021/05/03 11:40:31;;;;;;;6.57;1.80;;;;;;;;;;10341497;28;20497;-59
2021/05/03 11:45:30;;;;;;;3.08;1.70;;;;;;;;;;10338350;28;20044;-59
2021/05/03 11:50:28;;;;;;;4.30;1.70;;;;;;;;;;10339493;28;20036;-59
2021/05/03 11:55:30;;;;;;;4.50;2.20;;;;;;;;;;10338627;28;20040;-60
2021/05/03 12:00:29;;;;;;;5.70;1.80;;;;;;;;;;10339115;28;20059;-60
2021/05/03 12:05:26;;;;;;;6.47;1.77;;;;;;;;;;10340352;28;20454;-59
2021/05/03 12:10:23;;;;;;;3.85;1.83;;;;;;;;;;10338370;28;20064;-59
2021/05/03 12:15:22;;;;;;;4.72;1.80;;;;;;;;;;10339339;28;20088;-60
2021/05/03 12:20:20;;;;;;;8.93;2.40;;;;;;;;;;10339040;28;20419;-59
2021/05/03 12:25:17;;;;;;;12.57;2.35;;;;;;;;;;10338425;28;20083;-59
2021/05/03 12:30:15;;;;;;;3.70;2.20;;;;;;;;;;10340065;28;20067;-59
2021/05/03 12:35:15;;;;;;;9.45;2.40;;;;;;;;;;10337758;28;20523;-59
2021/05/03 12:40:14;;;;;;;10.13;2.22;;;;;;;;;;10339872;28;20051;-60
2021/05/03 12:45:34;;;;;;;4.18;1.52;;;;;;;;;;10337688;28;20086;-59
2021/05/03 12:50:44;;;;;;;73.45;9.45;;;;;;;;;;10317736;28;20040;-59
2021/05/03 12:55:57;;;;;;;5.45;2.20;;;;;;;;;;10317699;28;20044;-59
2021/05/03 13:01:05;;;;;;;2.92;1.60;;;;;;;;;;10317570;28;20075;-60
2021/05/03 13:06:18;;;;;;;6.20;1.70;;;;;;;;;;10334390;28;20044;-60
2021/05/03 13:32:21;;;;;;;2.97;1.70;;;;;;;;;;10336972;28;20051;-57
2021/05/03 13:37:19;;;;;;;13.13;2.88;;;;;;;;;;10333739;28;20067;-58
2021/05/03 13:42:37;;;;;;;12.63;2.10;;;;;;;;;;10334264;28;20496;-59
2021/05/03 13:47:34;;;;;;;11.30;2.92;;;;;;;;;;10333700;28;20087;-57
2021/05/03 13:52:33;;;;;;;2.60;1.63;;;;;;;;;;10331289;28;20442;-59
2021/05/03 13:57:30;;;;;;;5.93;2.33;;;;;;;;;;10330765;28;20080;-59
2021/05/03 14:02:27;;;;;;;1.83;1.25;;;;;;;;;;10336428;28;20481;-57
2021/05/03 14:07:25;;;;;;;9.95;3.00;;;;;;;;;;10336195;28;20523;-58
2021/05/03 14:12:23;;;;;;;5.32;1.80;;;;;;;;;;10334161;28;20071;-59
2021/05/03 14:17:20;;;;;;;12.80;2.33;;;;;;;;;;10312967;28;20068;-59
2021/05/03 14:22:19;;;;;;;4.50;1.90;;;;;;;;;;10326304;28;20102;-59
2021/05/03 14:27:16;;;;;;;2.78;1.45;;;;;;;;;;10335845;28;20178;-59
2021/05/03 14:32:22;;;;;;;3.47;1.50;;;;;;;;;;10339848;28;20068;-58
2021/05/03 14:37:20;;;;;;;5.30;2.22;;;;;;;;;;10339170;28;20076;-58
2021/05/03 14:42:18;;;;;;;5.60;2.10;;;;;;;;;;10341327;28;20424;-59
2021/05/03 14:47:19;;;;;;;7.05;2.00;;;;;;;;;;10342337;28;20049;-59
2021/05/03 14:52:23;;;;;;;5.75;1.80;;;;;;;;;;10336562;28;20438;-59
2021/05/03 14:57:21;;;;;;;5.40;2.47;;;;;;;;;;10341428;28;20084;-58
2021/05/03 15:02:19;;;;;;;10.43;3.65;;;;;;;;;;10341138;28;20083;-59
2021/05/03 15:07:18;;;;;;;8.98;4.85;;;;;;;;;;10339929;28;20076;-59
2021/05/03 15:12:20;;;;;;;6.78;2.67;;;;;;;;;;10338227;28;20090;-59
2021/05/03 15:17:26;;;;;;;6.40;2.67;;;;;;;;;;10339848;28;20048;-59
2021/05/03 15:22:24;;;;;;;3.55;1.70;;;;;;;;;;10340966;28;20519;-59
2021/05/03 15:27:26;;;;;;;7.20;1.73;;;;;;;;;;10340065;28;20382;-58
2021/05/03 15:32:37;;;;;;;7.40;2.72;;;;;;;;;;10341354;28;20051;-58
2021/05/03 15:37:36;;;;;;;4.00;2.03;;;;;;;;;;10340365;28;20067;-58
2021/05/03 15:42:33;;;;;;;5.32;1.88;;;;;;;;;;10340912;28;20084;-58
2021/05/03 15:47:31;;;;;;;3.15;1.55;;;;;;;;;;10325021;28;20494;-59
2021/05/03 15:52:28;;;;;;;5.68;2.28;;;;;;;;;;10328506;28;20072;-60
2021/05/03 15:57:26;;;;;;;3.90;1.95;;;;;;;;;;10331851;28;20509;-59
2021/05/03 16:02:24;;;;;;;4.70;3.25;;;;;;;;;;10336692;28;20072;-59
2021/05/03 16:07:21;;;;;;;9.50;2.70;;;;;;;;;;10335486;28;20071;-59
2021/05/03 16:12:18;;;;;;;4.68;2.72;;;;;;;;;;10336420;28;20068;-60
2021/05/03 16:17:17;;;;;;;4.75;1.80;;;;;;;;;;10340144;28;20076;-59
2021/05/03 16:22:15;;;;;;;3.65;2.20;;;;;;;;;;10317952;28;20079;-60
2021/05/03 16:27:14;;;;;;;4.53;1.83;;;;;;;;;;10325754;28;20040;-60
2021/05/03 16:32:13;;;;;;;6.68;1.48;;;;;;;;;;10337345;28;20036;-60
2021/05/03 16:37:12;;;;;;;5.35;1.92;;;;;;;;;;10338638;28;20048;-60
2021/05/03 16:42:10;;;;;;;6.43;2.05;;;;;;;;;;10337317;28;20079;-60
2021/05/03 16:47:08;;;;;;;5.60;2.70;;;;;;;;;;10337570;28;20059;-59
2021/05/03 16:52:07;;;;;;;6.05;2.05;;;;;;;;;;10337350;28;20524;-59
2021/05/03 16:57:06;;;;;;;6.32;2.17;;;;;;;;;;10336526;28;20102;-59
2021/05/03 17:02:03;;;;;;;4.82;2.05;;;;;;;;;;10334511;28;20071;-58
2021/05/03 17:07:01;;;;;;;2.10;1.58;;;;;;;;;;10331827;28;20064;-59
2021/05/03 17:11:58;;;;;;;3.30;2.75;;;;;;;;;;10323686;28;20072;-57
2021/05/03 17:16:57;;;;;;;4.05;2.78;;;;;;;;;;10329140;28;20071;-59
2021/05/03 17:21:54;;;;;;;4.30;2.67;;;;;;;;;;10332229;28;20082;-59
2021/05/03 17:26:52;;;;;;;4.72;2.03;;;;;;;;;;10333996;28;20068;-58
2021/05/03 17:31:49;;;;;;;5.90;2.10;;;;;;;;;;10334211;28;20075;-59
2021/05/03 17:36:47;;;;;;;5.45;2.50;;;;;;;;;;10335109;28;20048;-59
2021/05/03 17:41:45;;;;;;;2.53;1.98;;;;;;;;;;10337666;28;20060;-59
2021/05/03 17:46:42;;;;;;;3.22;2.38;;;;;;;;;;10337251;28;20033;-59
2021/05/03 17:51:40;;;;;;;3.55;1.90;;;;;;;;;;10337036;28;20036;-59
2021/05/03 17:56:38;;;;;;;5.93;1.95;;;;;;;;;;10336102;28;20332;-60
2021/05/03 18:01:36;;;;;;;2.75;2.30;;;;;;;;;;10337687;28;20048;-59
2021/05/03 18:06:35;;;;;;;6.60;3.47;;;;;;;;;;10340294;28;20063;-59
2021/05/03 18:11:33;;;;;;;7.57;5.57;;;;;;;;;;10343806;28;20106;-59
2021/05/03 18:16:31;;;;;;;10.63;7.93;;;;;;;;;;10345500;28;20068;-59
2021/05/03 18:21:30;;;;;;;3.35;2.50;;;;;;;;;;10343708;28;20063;-59
2021/05/03 18:26:34;;;;;;;8.52;2.58;;;;;;;;;;10343306;28;20488;-60
2021/05/03 18:31:32;;;;;;;4.15;2.80;;;;;;;;;;10344678;28;20072;-60
2021/05/03 18:36:30;;;;;;;3.80;2.45;;;;;;;;;;10343320;28;20044;-58
2021/05/03 18:41:28;;;;;;;2.58;2.22;;;;;;;;;;10343417;28;20083;-59
2021/05/03 18:46:27;;;;;;;3.33;2.20;;;;;;;;;;10343416;28;20450;-59
2021/05/03 18:51:25;;;;;;;4.70;2.33;;;;;;;;;;10342734;28;20075;-60
2021/05/03 18:56:22;;;;;;;4.13;3.03;;;;;;;;;;10343765;28;20047;-58
2021/05/03 19:01:20;;;;;;;6.88;3.90;;;;;;;;;;10339279;28;20040;-59
2021/05/03 19:06:18;;;;;;;7.55;4.30;;;;;;;;;;10340990;28;20076;-60
2021/05/03 19:11:17;;;;;;;3.60;2.85;;;;;;;;;;10338255;28;20075;-60
2021/05/03 19:16:14;;;;;;;3.53;2.60;;;;;;;;;;10339801;28;20048;-59
2021/05/03 19:21:12;;;;;;;3.63;2.00;;;;;;;;;;10339786;28;20075;-60
2021/05/03 19:26:09;;;;;;;4.25;2.58;;;;;;;;;;10338010;28;20099;-59
2021/05/03 19:31:18;;;;;;;5.88;2.30;;;;;;;;;;10340382;28;20071;-60
2021/05/03 19:36:18;;;;;;;3.05;2.20;;;;;;;;;;10339771;28;20485;-60
2021/05/03 19:41:15;;;;;;;3.25;2.55;;;;;;;;;;10339016;28;20064;-60
2021/05/03 19:46:15;;;;;;;4.40;2.40;;;;;;;;;;10338661;28;20072;-60
2021/05/03 19:51:17;;;;;;;6.80;2.55;;;;;;;;;;10339330;28;20051;-59
2021/05/03 20:06:44;;;;;;;3.15;2.00;;;;;;;;;;10372415;28;20043;-58
2021/05/03 20:11:41;;;;;;;5.45;2.38;;;;;;;;;;10371427;28;20094;-59
2021/05/03 20:16:40;;;;;;;3.35;2.00;;;;;;;;;;10371214;28;20044;-59
2021/05/03 20:21:37;;;;;;;4.55;2.50;;;;;;;;;;10371899;28;20077;-58
2021/05/03 20:26:34;;;;;;;5.75;2.63;;;;;;;;;;10370136;28;20047;-60
2021/05/03 20:31:32;;;;;;;5.15;2.90;;;;;;;;;;10372746;28;20051;-59
2021/05/03 20:36:39;;;;;;;9.02;5.15;;;;;;;;;;10366807;28;20060;-59
2021/05/03 20:41:37;;;;;;;5.43;3.20;;;;;;;;;;10367839;28;20083;-58
2021/05/03 20:46:34;;;;;;;5.72;2.10;;;;;;;;;;10371679;28;20041;-58
2021/05/03 20:51:32;;;;;;;3.55;2.20;;;;;;;;;;10366787;28;20470;-58
2021/05/03 20:56:30;;;;;;;2.47;2.05;;;;;;;;;;10370484;28;20036;-59
2021/05/03 21:01:27;;;;;;;4.60;2.15;;;;;;;;;;10369617;28;20520;-59
2021/05/03 21:06:24;;;;;;;3.15;2.15;;;;;;;;;;10368215;28;20068;-59
2021/05/03 21:11:23;;;;;;;2.30;1.90;;;;;;;;;;10348552;28;20082;-58
2021/05/03 21:16:22;;;;;;;3.33;2.38;;;;;;;;;;10341735;28;20063;-58
2021/05/03 21:21:19;;;;;;;2.97;1.75;;;;;;;;;;10343329;28;20067;-59
2021/05/03 21:26:17;;;;;;;2.88;2.30;;;;;;;;;;10338964;28;20512;-59
2021/05/03 21:31:15;;;;;;;5.38;2.50;;;;;;;;;;10342810;28;20039;-59
2021/05/03 21:36:12;;;;;;;4.15;3.00;;;;;;;;;;10340322;28;20067;-58
2021/05/03 21:41:10;;;;;;;3.70;2.10;;;;;;;;;;10341226;28;20064;-59
2021/05/03 21:46:07;;;;;;;3.97;2.33;;;;;;;;;;10341541;28;20524;-58
2021/05/03 21:51:06;;;;;;;4.22;2.22;;;;;;;;;;10339657;28;20072;-58
2021/05/03 21:56:03;;;;;;;2.95;1.95;;;;;;;;;;10340754;28;20087;-59
2021/05/03 22:01:01;;;;;;;3.58;2.50;;;;;;;;;;10335983;28;20083;-59
2021/05/03 22:06:01;;;;;;;15.95;2.85;;;;;;;;;;10341308;28;20063;-59
2021/05/03 22:11:00;;;;;;;4.13;2.80;;;;;;;;;;10338427;28;20521;-59
2021/05/03 22:16:01;;;;;;;5.35;2.55;;;;;;;;;;10340863;28;20505;-61
2021/05/03 22:21:01;;;;;;;3.88;2.95;;;;;;;;;;10338444;28;20064;-59
2021/05/03 22:26:02;;;;;;;3.08;2.00;;;;;;;;;;10340144;28;20087;-59
2021/05/03 22:31:00;;;;;;;2.60;2.10;;;;;;;;;;10338995;28;20056;-59
2021/05/03 22:36:01;;;;;;;3.33;3.03;;;;;;;;;;10339333;28;20429;-59
2021/05/03 23:17:48;;;;;;;2.95;2.63;;;;;;;;;;10337930;28;20083;-58
2021/05/03 23:22:45;;;;;;;2.67;2.13;;;;;;;;;;10336156;28;20044;-58
2021/05/03 23:27:44;;;;;;;4.05;2.38;;;;;;;;;;10336656;28;20068;-58
2021/05/03 23:32:41;;;;;;;4.18;1.98;;;;;;;;;;10336747;28;20315;-58
2021/05/03 23:37:38;;;;;;;2.90;2.60;;;;;;;;;;10335785;28;20068;-58
2021/05/03 23:42:36;;;;;;;2.50;2.30;;;;;;;;;;10337910;28;20473;-59
2021/05/03 23:47:34;;;;;;;3.20;2.35;;;;;;;;;;10332150;28;20055;-59
2021/05/03 23:52:32;;;;;;;3.83;2.70;;;;;;;;;;10337201;28;20048;-59
2021/05/03 23:57:29;;;;;;;6.13;2.58;;;;;;;;;;10335221;28;20079;-58
